Time;durP1;ratioP1;P1;durP2;ratioP2;P2;SDS_P1;SDS_P2;PMS_P1;PMS_P2;Temp;Humidity;BMP_temperature;BMP_pressure;BME280_temperature;BME280_humidity;BME280_pressure;Samples;Min_cycle;Max_cycle;Signal;HPM_P1;HPM_P2
2024/01/27 00:01:56;;;;;;;22.00;3.72;;;;;;;6.55;76.63;103132.38;7390666;19;20747;-64
2024/01/27 00:04:26;;;;;;;24.98;3.75;;;;;;;6.57;76.28;103135.00;7388589;19;20023;-64
2024/01/27 00:06:57;;;;;;;19.73;3.65;;;;;;;6.49;76.35;103132.53;7390230;19;20051;-63
2024/01/27 00:09:29;;;;;;;19.77;3.63;;;;;;;6.41;76.81;103123.91;7390417;19;20039;-64
2024/01/27 00:12:00;;;;;;;19.70;3.60;;;;;;;6.31;76.89;103127.56;7390253;19;20066;-64
2024/01/27 00:14:38;;;;;;;21.02;3.35;;;;;;;6.38;76.85;103121.31;7387947;19;20043;-65
2024/01/27 00:17:09;;;;;;;18.08;3.53;;;;;;;6.35;76.81;103118.72;7390309;19;20023;-64
2024/01/27 00:19:40;;;;;;;20.88;2.92;;;;;;;6.33;76.86;103110.88;7390464;19;20022;-63
2024/01/27 00:22:11;;;;;;;16.95;3.35;;;;;;;6.41;76.77;103128.25;7390295;19;20022;-64
2024/01/27 00:24:42;;;;;;;18.70;3.88;;;;;;;6.37;76.64;103132.72;7388410;19;20026;-64
2024/01/27 00:27:13;;;;;;;21.17;3.53;;;;;;;6.33;76.92;103124.03;7389909;19;20011;-64
2024/01/27 00:29:48;;;;;;;18.17;3.50;;;;;;;6.26;76.75;103132.06;7389476;19;20011;-64
2024/01/27 00:32:18;;;;;;;19.38;3.40;;;;;;;6.07;77.52;103129.72;7396432;19;20018;-64
2024/01/27 00:34:49;;;;;;;21.17;3.03;;;;;;;6.21;77.32;103126.00;7394755;19;20018;-64
2024/01/27 00:37:19;;;;;;;17.90;3.05;;;;;;;6.30;76.97;103134.59;7397268;19;20369;-64
2024/01/27 00:39:50;;;;;;;24.27;4.00;;;;;;;6.25;76.89;103136.44;7397055;19;20011;-64
2024/01/27 00:42:23;;;;;;;21.13;3.40;;;;;;;6.21;77.31;103132.13;7396800;19;20622;-64
2024/01/27 00:44:55;;;;;;;18.42;3.10;;;;;;;6.22;76.96;103140.88;7394800;19;20026;-64
2024/01/27 00:47:25;;;;;;;24.55;4.35;;;;;;;6.24;76.98;103152.25;7396605;19;20377;-64
2024/01/27 00:49:56;;;;;;;22.95;3.67;;;;;;;6.21;77.22;103162.81;7396020;19;20031;-64
2024/01/27 00:52:27;;;;;;;16.63;3.33;;;;;;;6.16;77.47;103168.16;7396517;19;20029;-64
2024/01/27 00:54:58;;;;;;;16.52;3.30;;;;;;;6.10;77.71;103153.38;7392498;19;20043;-64
2024/01/27 00:57:32;;;;;;;16.75;3.00;;;;;;;6.08;77.51;103144.63;7396546;19;20082;-64
2024/01/27 01:00:06;;;;;;;18.95;3.13;;;;;;;6.06;77.60;103161.31;7395638;19;20015;-64
2024/01/27 01:02:41;;;;;;;21.75;3.35;;;;;;;6.03;77.90;103156.97;7394713;19;20047;-64
2024/01/27 01:05:12;;;;;;;19.55;3.90;;;;;;;6.13;77.69;103160.31;7389839;19;20499;-64
2024/01/27 01:07:45;;;;;;;17.98;3.55;;;;;;;6.09;77.42;103167.38;7395720;19;20018;-65
2024/01/27 01:10:15;;;;;;;20.23;3.03;;;;;;;6.04;77.54;103176.25;7393194;19;20142;-64
2024/01/27 01:12:46;;;;;;;23.42;3.58;;;;;;;6.03;77.63;103182.41;7396579;19;20015;-64
2024/01/27 01:15:17;;;;;;;14.07;2.80;;;;;;;6.09;77.90;103183.16;7393246;19;20026;-64
2024/01/27 01:17:48;;;;;;;15.88;3.13;;;;;;;6.08;77.64;103189.34;7396176;19;20026;-64
2024/01/27 01:20:19;;;;;;;16.35;3.30;;;;;;;6.12;77.50;103184.91;7395314;19;20049;-64
2024/01/27 01:22:47;;;;;;;19.15;3.13;;;;;;;6.12;77.39;103179.63;7395318;19;20394;-64
2024/01/27 01:25:18;;;;;;;17.92;3.70;;;;;;;6.07;77.78;103187.59;7393089;19;20713;-64
2024/01/27 01:27:49;;;;;;;20.85;3.83;;;;;;;6.03;77.93;103183.28;7397362;19;20014;-64
2024/01/27 01:30:20;;;;;;;18.83;3.13;;;;;;;6.03;77.93;103188.53;7394095;19;20023;-64
2024/01/27 01:32:53;;;;;;;16.40;3.47;;;;;;;6.01;77.91;103192.06;7395390;19;20014;-64
2024/01/27 01:35:24;;;;;;;18.42;3.10;;;;;;;6.05;77.70;103178.00;7392380;19;20015;-64
2024/01/27 01:37:57;;;;;;;18.33;3.97;;;;;;;6.09;77.66;103179.66;7395582;19;20381;-64
2024/01/27 01:40:30;;;;;;;19.50;3.97;;;;;;;6.15;77.49;103189.25;7394960;19;20474;-63
2024/01/27 01:43:03;;;;;;;16.40;3.20;;;;;;;6.13;77.42;103185.75;7390298;19;20019;-63
2024/01/27 01:45:38;;;;;;;17.60;3.85;;;;;;;6.06;77.45;103177.94;7392702;19;20011;-64
2024/01/27 01:48:09;;;;;;;23.75;3.80;;;;;;;6.05;77.49;103184.13;7395149;19;20030;-63
2024/01/27 01:50:41;;;;;;;19.63;3.58;;;;;;;6.17;77.28;103182.19;7392984;19;20030;-64
2024/01/27 01:53:12;;;;;;;19.48;3.50;;;;;;;6.09;77.30;103188.44;7394285;19;20547;-64
2024/01/27 01:55:46;;;;;;;17.58;3.42;;;;;;;6.05;77.57;103196.41;7391643;19;20044;-64
2024/01/27 01:58:17;;;;;;;19.90;3.90;;;;;;;6.06;77.66;103193.72;7394625;19;20025;-64
2024/01/27 02:00:48;;;;;;;19.58;3.03;;;;;;;6.05;77.49;103192.00;7394089;19;20422;-64
2024/01/27 02:03:19;;;;;;;18.40;3.00;;;;;;;5.99;77.60;103191.22;7394452;19;20026;-64
2024/01/27 02:05:49;;;;;;;23.50;3.80;;;;;;;5.97;78.05;103193.03;7391932;19;20018;-64
2024/01/27 02:08:20;;;;;;;16.13;3.55;;;;;;;5.99;77.64;103194.75;7394313;19;20086;-64
2024/01/27 02:10:51;;;;;;;17.42;3.28;;;;;;;5.96;77.62;103200.03;7392920;19;20562;-63
2024/01/27 02:13:22;;;;;;;15.50;2.90;;;;;;;5.95;78.07;103203.53;7392301;19;20030;-63
2024/01/27 02:15:53;;;;;;;17.27;3.33;;;;;;;5.95;77.84;103197.41;7393375;19;20022;-62
2024/01/27 02:18:24;;;;;;;17.75;3.65;;;;;;;6.04;77.79;103200.78;7393226;19;20377;-63
2024/01/27 02:20:54;;;;;;;20.83;4.00;;;;;;;5.99;77.69;103197.38;7393520;19;20354;-61
2024/01/27 02:23:25;;;;;;;18.23;3.28;;;;;;;5.98;77.54;103200.88;7393203;19;20014;-63
2024/01/27 02:25:56;;;;;;;23.52;3.78;;;;;;;5.99;77.63;103204.38;7392865;19;20048;-64
2024/01/27 02:28:26;;;;;;;16.70;3.50;;;;;;;5.94;77.67;103208.84;7393637;19;20032;-64
2024/01/27 02:30:57;;;;;;;19.27;3.22;;;;;;;5.97;77.71;103214.94;7391959;19;20089;-64
2024/01/27 02:33:30;;;;;;;18.63;3.38;;;;;;;5.94;77.42;103207.06;7392744;19;20017;-62
2024/01/27 02:36:01;;;;;;;17.38;3.08;;;;;;;5.92;77.71;103210.59;7392692;19;20025;-63
2024/01/27 02:38:39;;;;;;;17.73;2.63;;;;;;;5.91;77.86;103206.22;7393367;19;20029;-62
2024/01/27 02:41:11;;;;;;;19.33;3.20;;;;;;;6.00;77.70;103221.91;7392961;19;20019;-63
2024/01/27 02:43:42;;;;;;;21.80;3.83;;;;;;;5.99;77.28;103215.78;7392146;19;20748;-63
2024/01/27 02:46:15;;;;;;;16.33;3.40;;;;;;;5.98;77.24;103219.28;7391757;19;20040;-63
2024/01/27 02:48:46;;;;;;;17.70;3.22;;;;;;;5.88;77.76;103217.66;7392192;19;20039;-63
2024/01/27 02:51:20;;;;;;;17.80;2.85;;;;;;;5.89;77.95;103216.75;7388663;19;20031;-64
2024/01/27 02:53:51;;;;;;;16.80;3.25;;;;;;;5.83;77.64;103228.22;7390392;19;20074;-62
2024/01/27 02:56:21;;;;;;;20.25;3.55;;;;;;;5.78;78.02;103229.19;7392058;19;20018;-63
2024/01/27 02:58:52;;;;;;;22.48;3.47;;;;;;;5.81;78.15;103234.41;7392395;19;20022;-63
2024/01/27 03:01:22;;;;;;;16.15;3.08;;;;;;;5.86;77.71;103233.44;7392254;19;20049;-62
2024/01/27 03:03:53;;;;;;;15.75;2.80;;;;;;;5.91;77.53;103243.91;7390988;19;20022;-61
2024/01/27 03:06:24;;;;;;;19.90;3.25;;;;;;;5.83;77.76;103243.13;7392272;19;20023;-62
2024/01/27 03:08:54;;;;;;;18.75;3.70;;;;;;;5.81;78.25;103244.94;7392288;19;20378;-62
2024/01/27 03:11:25;;;;;;;17.17;4.07;;;;;;;5.82;77.85;103244.03;7390503;19;20035;-63
2024/01/27 03:13:55;;;;;;;19.67;3.40;;;;;;;5.83;77.54;103240.50;7391244;19;20108;-63
2024/01/27 03:16:26;;;;;;;19.23;3.45;;;;;;;5.86;77.38;103237.84;7391347;19;20074;-61
2024/01/27 03:18:56;;;;;;;17.90;3.95;;;;;;;5.79;77.60;103246.69;7392102;19;20022;-63
2024/01/27 03:21:29;;;;;;;18.13;4.18;;;;;;;5.72;77.86;103248.53;7391900;19;20010;-63
2024/01/27 03:24:00;;;;;;;17.20;3.30;;;;;;;5.73;78.20;103249.44;7390707;19;20501;-62
2024/01/27 03:26:37;;;;;;;16.73;3.25;;;;;;;5.77;78.24;103257.25;7391636;19;20018;-64
2024/01/27 03:29:08;;;;;;;16.77;3.42;;;;;;;5.74;78.10;103259.03;7392152;19;20022;-62
2024/01/27 03:31:41;;;;;;;13.20;3.22;;;;;;;5.80;77.62;103248.44;7389523;19;20026;-63
2024/01/27 03:34:11;;;;;;;19.95;3.60;;;;;;;5.76;77.99;103244.09;7389151;19;20026;-63
2024/01/27 03:36:42;;;;;;;15.77;3.40;;;;;;;5.69;77.76;103245.09;7391603;19;20026;-62
2024/01/27 03:39:12;;;;;;;18.02;3.58;;;;;;;5.79;78.07;103250.19;7391218;19;20588;-61
2024/01/27 03:41:43;;;;;;;20.00;3.25;;;;;;;5.76;78.25;103250.25;7391381;19;20019;-63
2024/01/27 03:44:13;;;;;;;14.85;3.17;;;;;;;5.87;77.55;103253.59;7389881;19;20050;-66
2024/01/27 03:46:44;;;;;;;16.73;3.22;;;;;;;5.80;77.89;103243.16;7391098;19;20074;-64
2024/01/27 03:49:14;;;;;;;20.42;3.28;;;;;;;5.79;78.03;103255.44;7390938;19;20027;-63
2024/01/27 03:51:45;;;;;;;15.82;2.92;;;;;;;5.74;78.07;103259.91;7390143;19;20103;-64
2024/01/27 03:54:16;;;;;;;14.38;3.00;;;;;;;5.73;77.87;103241.53;7390053;19;20100;-66
2024/01/27 03:56:46;;;;;;;17.08;3.15;;;;;;;5.76;78.17;103236.22;7391516;19;20043;-66
2024/01/27 03:59:17;;;;;;;18.45;3.35;;;;;;;5.73;78.08;103233.66;7390678;19;20035;-64
2024/01/27 04:01:47;;;;;;;18.60;3.00;;;;;;;5.68;77.98;103238.09;7390643;19;20019;-64
2024/01/27 04:04:18;;;;;;;18.33;3.25;;;;;;;5.70;78.12;103241.56;7390210;19;20023;-63
2024/01/27 04:06:48;;;;;;;18.10;3.15;;;;;;;5.71;78.31;103251.19;7396531;19;20019;-64
2024/01/27 04:09:19;;;;;;;17.63;3.30;;;;;;;5.76;78.13;103258.16;7398792;19;20028;-65
2024/01/27 04:11:50;;;;;;;17.23;3.38;;;;;;;5.75;77.90;103266.03;7395892;19;20018;-64
2024/01/27 04:14:21;;;;;;;18.95;3.60;;;;;;;5.83;77.58;103267.66;7395153;19;20027;-64
2024/01/27 04:16:51;;;;;;;16.58;3.20;;;;;;;5.74;77.63;103261.69;7398133;19;20074;-65
2024/01/27 04:19:22;;;;;;;12.70;2.72;;;;;;;5.78;77.65;103274.75;7397893;19;20018;-65
2024/01/27 04:21:53;;;;;;;16.48;3.22;;;;;;;5.69;77.66;103260.88;7397890;19;20022;-64
2024/01/27 04:24:23;;;;;;;19.05;3.63;;;;;;;5.73;77.52;103270.47;7395830;19;20484;-65
2024/01/27 04:26:54;;;;;;;18.73;3.10;;;;;;;5.77;77.19;103261.63;7397646;19;20019;-67
2024/01/27 04:29:24;;;;;;;17.27;3.25;;;;;;;5.71;77.53;103274.84;7397710;19;20118;-60
2024/01/27 04:31:55;;;;;;;16.42;3.33;;;;;;;5.68;77.77;103274.88;7395258;19;20015;-61
2024/01/27 04:34:25;;;;;;;16.58;3.10;;;;;;;5.72;77.51;103284.47;7395862;19;20478;-61
2024/01/27 04:36:57;;;;;;;15.65;2.72;;;;;;;5.67;77.30;103288.94;7397042;19;20091;-63
2024/01/27 04:39:30;;;;;;;17.20;3.08;;;;;;;5.48;77.67;103278.63;7396856;19;20022;-61
2024/01/27 04:42:01;;;;;;;19.58;3.20;;;;;;;5.61;77.75;103284.63;7396869;19;20015;-61
2024/01/27 04:44:41;;;;;;;15.10;2.90;;;;;;;5.59;77.53;103289.03;7394986;19;20046;-62
2024/01/27 04:47:14;;;;;;;19.88;3.13;;;;;;;5.53;77.49;103275.94;7397044;19;20015;-62
2024/01/27 04:49:44;;;;;;;15.02;3.00;;;;;;;5.65;77.31;103281.06;7396701;19;20399;-62
2024/01/27 04:52:16;;;;;;;16.20;3.20;;;;;;;5.57;77.48;103272.38;7394539;19;20014;-62
2024/01/27 04:54:46;;;;;;;14.65;2.60;;;;;;;5.47;77.56;103279.53;7394176;19;20463;-62
2024/01/27 04:57:17;;;;;;;18.73;3.25;;;;;;;5.51;77.87;103291.72;7396539;19;20019;-61
2024/01/27 04:59:48;;;;;;;15.40;2.92;;;;;;;5.52;78.03;103289.97;7396618;19;20023;-61
2024/01/27 05:02:19;;;;;;;14.95;3.10;;;;;;;5.56;77.79;103284.66;7395312;19;20014;-62
2024/01/27 05:04:49;;;;;;;17.33;2.75;;;;;;;5.56;77.62;103286.41;7394915;19;20030;-64
2024/01/27 05:07:21;;;;;;;18.02;3.10;;;;;;;5.52;77.95;103279.47;7396462;19;20015;-60
2024/01/27 05:09:51;;;;;;;17.65;3.20;;;;;;;5.56;77.74;103287.28;7394999;19;20019;-60
2024/01/27 05:12:22;;;;;;;14.13;3.03;;;;;;;5.54;77.76;103289.06;7394411;19;20030;-61
2024/01/27 05:14:53;;;;;;;17.33;3.15;;;;;;;5.55;77.87;103295.19;7393251;19;20024;-59
2024/01/27 05:17:23;;;;;;;16.25;2.83;;;;;;;5.52;77.28;103290.84;7395083;19;20010;-61
2024/01/27 05:19:54;;;;;;;16.58;3.03;;;;;;;5.57;77.30;103283.78;7393454;19;20791;-59
2024/01/27 05:22:25;;;;;;;16.10;2.97;;;;;;;5.53;77.50;103292.59;7394537;19;20022;-60
2024/01/27 05:24:55;;;;;;;17.98;3.25;;;;;;;5.56;77.49;103292.53;7393383;19;20022;-59
2024/01/27 05:27:26;;;;;;;16.10;3.10;;;;;;;5.60;77.04;103290.75;7394054;19;20038;-60
2024/01/27 05:29:56;;;;;;;15.05;2.83;;;;;;;5.48;77.46;103291.75;7395910;19;20378;-58
2024/01/27 05:32:27;;;;;;;14.43;2.90;;;;;;;5.57;77.46;103294.31;7393674;19;20050;-60
2024/01/27 05:34:57;;;;;;;15.70;3.00;;;;;;;5.59;77.23;103297.78;7391774;19;20055;-58
2024/01/27 05:37:31;;;;;;;14.57;2.90;;;;;;;5.46;77.42;103290.06;7396211;19;20034;-59
2024/01/27 05:40:02;;;;;;;17.50;3.33;;;;;;;5.44;77.38;103303.19;7394984;19;20483;-58
2024/01/27 05:42:42;;;;;;;18.20;3.13;;;;;;;5.49;77.30;103293.50;7395359;19;20018;-57
2024/01/27 05:45:13;;;;;;;18.42;2.80;;;;;;;5.51;77.01;103310.13;7392510;19;20018;-59
2024/01/27 05:47:46;;;;;;;13.00;3.25;;;;;;;5.46;77.19;103306.69;7393858;19;20030;-59
2024/01/27 05:50:16;;;;;;;20.10;3.63;;;;;;;5.52;77.29;103303.13;7395126;19;20029;-59
2024/01/27 05:52:45;;;;;;;14.45;2.63;;;;;;;5.41;77.27;103307.63;7393030;19;20054;-59
2024/01/27 05:55:17;;;;;;;13.93;2.50;;;;;;;5.48;77.49;103311.91;7392190;19;20022;-58
2024/01/27 05:57:57;;;;;;;15.95;2.47;;;;;;;5.47;77.27;103318.94;7395124;19;20024;-59
2024/01/27 06:00:28;;;;;;;17.10;2.63;;;;;;;5.39;77.24;103310.28;7394391;19;20044;-57
2024/01/27 06:02:58;;;;;;;17.60;2.80;;;;;;;5.28;77.61;103312.16;7394748;19;20026;-60
2024/01/27 06:05:32;;;;;;;19.15;3.15;;;;;;;5.25;77.90;103326.16;7392079;19;20099;-58
2024/01/27 06:08:02;;;;;;;14.00;3.15;;;;;;;5.18;78.24;103329.72;7394145;19;20025;-59
2024/01/27 06:10:38;;;;;;;15.13;3.10;;;;;;;5.22;77.96;103328.81;7394268;19;20383;-59
2024/01/27 06:13:09;;;;;;;16.25;4.82;;;;;;;5.30;77.89;103337.53;7391105;19;20019;-59
2024/01/27 06:15:39;;;;;;;17.08;3.97;;;;;;;5.26;77.52;103322.66;7392513;19;20018;-59
2024/01/27 06:18:10;;;;;;;14.98;2.70;;;;;;;5.20;77.79;103327.97;7394026;19;20103;-59
2024/01/27 06:20:41;;;;;;;14.27;2.67;;;;;;;5.14;78.01;103334.16;7393739;19;20490;-58
2024/01/27 06:23:12;;;;;;;18.30;2.95;;;;;;;5.28;77.77;103338.41;7394303;19;20010;-60
2024/01/27 06:25:43;;;;;;;15.45;2.70;;;;;;;5.24;77.73;103337.56;7390989;19;20025;-60
2024/01/27 06:28:13;;;;;;;18.35;2.92;;;;;;;5.26;77.37;103343.66;7391596;19;20019;-59
2024/01/27 06:30:44;;;;;;;16.48;2.70;;;;;;;5.26;77.66;103350.69;7393844;19;20022;-60
2024/01/27 06:33:14;;;;;;;15.02;2.97;;;;;;;5.13;78.01;103347.31;7391915;19;20037;-60
2024/01/27 06:35:44;;;;;;;16.08;2.80;;;;;;;5.11;78.03;103344.69;7391327;19;20022;-61
2024/01/27 06:38:15;;;;;;;20.70;4.00;;;;;;;5.21;77.94;103355.13;7393405;19;20508;-59
2024/01/27 06:40:45;;;;;;;13.38;2.92;;;;;;;5.15;77.65;103356.03;7393643;19;20018;-60
2024/01/27 06:43:15;;;;;;;14.30;2.63;;;;;;;5.21;78.04;103363.84;7393319;19;20486;-60
2024/01/27 06:45:46;;;;;;;19.33;3.70;;;;;;;5.21;77.70;103366.50;7390578;19;20039;-61
2024/01/27 06:48:16;;;;;;;15.82;3.10;;;;;;;5.22;77.74;103383.97;7393502;19;20022;-60
2024/01/27 06:50:46;;;;;;;15.38;3.53;;;;;;;5.18;77.57;103373.53;7392829;19;20021;-60
2024/01/27 06:53:18;;;;;;;18.20;3.15;;;;;;;5.12;77.90;103375.31;7390611;19;20031;-60
2024/01/27 06:55:48;;;;;;;13.07;3.47;;;;;;;5.16;77.45;103376.19;7390764;19;20025;-60
2024/01/27 06:58:19;;;;;;;15.07;3.00;;;;;;;5.09;77.66;103374.47;7393053;19;20039;-61
2024/01/27 07:00:49;;;;;;;17.13;3.42;;;;;;;5.14;77.86;103378.78;7392563;19;20050;-60
2024/01/27 07:03:20;;;;;;;14.25;2.92;;;;;;;5.10;77.90;103389.34;7392982;19;20019;-61
2024/01/27 07:05:50;;;;;;;12.90;2.72;;;;;;;5.12;77.99;103384.97;7390656;19;20025;-62
2024/01/27 07:08:21;;;;;;;15.50;3.03;;;;;;;5.18;77.65;103365.63;7392255;19;20014;-61
2024/01/27 07:10:51;;;;;;;14.73;3.67;;;;;;;5.15;77.31;103382.28;7392210;19;20407;-61
2024/01/27 07:13:21;;;;;;;19.85;3.58;;;;;;;5.16;77.86;103391.94;7390292;19;20543;-58
2024/01/27 07:15:52;;;;;;;15.85;3.05;;;;;;;5.11;77.89;103391.06;7391971;19;20022;-57
2024/01/27 07:18:22;;;;;;;18.13;4.03;;;;;;;5.13;77.92;103400.69;7392553;19;20379;-59
2024/01/27 07:20:54;;;;;;;18.45;3.30;;;;;;;5.05;78.15;103386.75;7391687;19;20015;-58
2024/01/27 07:23:25;;;;;;;13.32;2.97;;;;;;;5.18;77.66;103384.91;7391586;19;20516;-59
2024/01/27 07:25:55;;;;;;;16.02;3.58;;;;;;;5.20;77.24;103377.03;7391856;19;20051;-58
2024/01/27 07:28:25;;;;;;;13.07;3.38;;;;;;;5.15;77.92;103377.03;7391816;19;20028;-59
2024/01/27 07:30:56;;;;;;;12.88;2.80;;;;;;;5.10;77.81;103394.59;7391777;19;20373;-60
2024/01/27 07:33:29;;;;;;;15.90;2.95;;;;;;;5.08;78.03;103372.75;7389930;19;20047;-59
2024/01/27 07:36:00;;;;;;;14.95;3.08;;;;;;;5.23;77.49;103395.38;7391740;19;20015;-58
2024/01/27 07:38:37;;;;;;;15.05;2.83;;;;;;;5.18;77.33;103405.91;7391871;19;20514;-58
2024/01/27 07:41:08;;;;;;;16.58;3.00;;;;;;;5.11;77.88;103409.47;7391694;19;20018;-59
2024/01/27 07:43:39;;;;;;;19.67;3.63;;;;;;;5.16;77.68;103417.34;7390657;19;20034;-59
2024/01/27 07:46:10;;;;;;;16.52;3.53;;;;;;;5.21;77.64;103412.91;7391092;19;20088;-58
2024/01/27 07:48:41;;;;;;;13.40;3.67;;;;;;;5.21;77.44;103419.03;7391558;19;20093;-59
2024/01/27 07:51:12;;;;;;;13.85;3.70;;;;;;;5.25;77.57;103415.47;7391219;19;20082;-59
2024/01/27 07:53:42;;;;;;;17.17;3.00;;;;;;;5.20;77.62;103414.66;7389104;19;20030;-59
2024/01/27 07:56:13;;;;;;;17.35;3.20;;;;;;;5.20;77.26;103427.78;7391336;19;20095;-60
2024/01/27 07:58:43;;;;;;;15.85;3.67;;;;;;;5.29;77.21;103426.84;7391196;19;20019;-58
2024/01/27 08:01:15;;;;;;;17.13;3.47;;;;;;;5.27;77.63;103433.88;7391257;19;20475;-59
2024/01/27 08:03:46;;;;;;;17.00;3.70;;;;;;;5.34;76.81;103432.91;7390391;19;20026;-59
2024/01/27 08:06:21;;;;;;;14.43;2.85;;;;;;;5.42;76.57;103427.59;7391356;19;20082;-56
2024/01/27 08:08:52;;;;;;;13.48;2.97;;;;;;;5.41;76.64;103442.50;7391143;19;20022;-58
2024/01/27 08:11:24;;;;;;;14.88;3.92;;;;;;;5.29;77.09;103438.22;7390979;19;20032;-58
2024/01/27 08:13:55;;;;;;;19.05;3.90;;;;;;;5.30;77.15;103441.72;7387539;19;20077;-58
2024/01/27 08:16:25;;;;;;;15.82;3.40;;;;;;;5.36;76.89;103441.66;7389024;19;20523;-59
2024/01/27 08:18:56;;;;;;;12.93;3.65;;;;;;;5.27;77.43;103439.13;7391204;19;20030;-60
2024/01/27 08:21:27;;;;;;;15.93;3.70;;;;;;;5.37;76.91;103451.28;7390730;19;20026;-60
2024/01/27 08:23:58;;;;;;;17.45;3.80;;;;;;;5.39;77.11;103446.91;7388950;19;20030;-60
2024/01/27 08:26:32;;;;;;;19.05;3.70;;;;;;;5.40;76.96;103451.28;7389765;19;20038;-60
2024/01/27 08:29:03;;;;;;;14.18;3.40;;;;;;;5.32;77.34;103448.69;7389646;19;20015;-60
2024/01/27 08:31:38;;;;;;;16.25;3.08;;;;;;;5.35;76.97;103446.06;7389976;19;20043;-62
2024/01/27 08:34:12;;;;;;;14.73;3.10;;;;;;;5.46;77.15;103453.84;7389487;19;20018;-61
2024/01/27 08:36:43;;;;;;;;;;;;;;;5.40;76.76;103453.91;7390229;19;20022;-63
2024/01/27 08:39:14;;;;;;;13.65;3.20;;;;;;;5.36;77.40;103447.78;7390452;19;19944;-59
2024/01/27 08:41:44;;;;;;;16.33;3.40;;;;;;;5.51;77.16;103452.06;7389940;19;20026;-61
2024/01/27 08:44:15;;;;;;;18.15;3.92;;;;;;;5.56;76.97;103460.75;7387204;19;20056;-61
2024/01/27 08:46:45;;;;;;;16.92;4.47;;;;;;;5.66;76.86;103461.56;7389821;19;20014;-61
2024/01/27 08:49:16;;;;;;;20.00;3.50;;;;;;;5.69;76.55;103466.78;7389552;19;20014;-62
2024/01/27 08:51:46;;;;;;;16.75;3.45;;;;;;;5.75;76.29;103473.72;7391936;19;20035;-61
2024/01/27 08:54:17;;;;;;;24.48;4.32;;;;;;;5.74;76.60;103472.00;7394999;19;20029;-62
2024/01/27 08:56:47;;;;;;;14.73;3.70;;;;;;;5.70;76.54;103470.28;7396876;19;20014;-61
2024/01/27 08:59:18;;;;;;;15.18;3.25;;;;;;;5.72;76.43;103474.63;7397058;19;20023;-63
2024/01/27 09:01:48;;;;;;;15.85;3.47;;;;;;;5.70;76.42;103467.66;7396663;19;20025;-63
2024/01/27 09:04:19;;;;;;;17.20;3.72;;;;;;;5.82;76.02;103478.91;7395476;19;20098;-61
2024/01/27 09:06:49;;;;;;;11.73;3.10;;;;;;;5.84;76.20;103484.19;7396581;19;20019;-61
2024/01/27 09:09:20;;;;;;;16.35;3.83;;;;;;;5.87;76.30;103484.13;7396071;19;20040;-62
2024/01/27 09:11:51;;;;;;;13.23;3.10;;;;;;;5.97;75.83;103498.97;7396176;19;20031;-58
2024/01/27 09:14:21;;;;;;;15.32;3.40;;;;;;;5.99;76.10;103499.84;7394661;19;20423;-60
2024/01/27 09:16:52;;;;;;;16.92;3.80;;;;;;;5.82;76.45;103488.56;7396283;19;20439;-58
2024/01/27 09:19:22;;;;;;;13.43;3.90;;;;;;;6.07;75.60;103502.38;7396307;19;20015;-61
2024/01/27 09:21:53;;;;;;;11.95;3.22;;;;;;;6.09;75.52;103498.84;7397291;19;20015;-59
2024/01/27 09:24:24;;;;;;;13.27;3.30;;;;;;;6.07;75.83;103500.63;7395182;19;20035;-63
2024/01/27 09:26:54;;;;;;;16.90;3.88;;;;;;;6.16;75.49;103498.78;7396325;19;20018;-63
2024/01/27 09:29:25;;;;;;;19.33;4.22;;;;;;;6.21;75.28;103504.84;7397619;19;20018;-63
2024/01/27 09:31:55;;;;;;;14.05;4.05;;;;;;;6.26;75.17;103495.16;7396597;19;20014;-63
2024/01/27 09:34:27;;;;;;;19.17;3.72;;;;;;;6.31;74.97;103504.75;7395747;19;20371;-64
2024/01/27 09:36:58;;;;;;;13.82;3.60;;;;;;;6.30;75.35;103504.78;7396640;19;20018;-63
2024/01/27 09:39:33;;;;;;;16.88;3.90;;;;;;;6.19;75.47;103488.22;7396646;19;20023;-63
2024/01/27 09:42:06;;;;;;;17.55;3.95;;;;;;;6.27;75.77;103500.41;7396730;19;20101;-62
2024/01/27 09:44:39;;;;;;;16.45;4.03;;;;;;;6.36;75.42;103502.03;7394027;19;20044;-63
2024/01/27 09:47:11;;;;;;;19.13;5.28;;;;;;;6.38;75.08;103507.31;7395086;19;20039;-63
2024/01/27 09:49:42;;;;;;;18.25;4.35;;;;;;;6.46;75.25;103505.44;7395386;19;20043;-64
2024/01/27 09:52:13;;;;;;;15.27;4.45;;;;;;;6.57;74.54;103516.72;7394837;19;20014;-62
2024/01/27 09:54:44;;;;;;;14.45;3.95;;;;;;;6.45;74.80;103511.59;7392795;19;20096;-64
2024/01/27 09:57:15;;;;;;;16.60;4.10;;;;;;;6.60;74.65;103516.66;7394956;19;20022;-63
2024/01/27 09:59:47;;;;;;;20.42;4.65;;;;;;;6.50;74.82;103515.06;7394550;19;20022;-63
2024/01/27 10:02:18;;;;;;;13.30;4.30;;;;;;;6.52;75.19;103529.06;7394016;19;20018;-63
2024/01/27 10:04:50;;;;;;;16.95;4.28;;;;;;;6.55;74.94;103515.84;7390661;19;20023;-64
2024/01/27 10:07:22;;;;;;;17.90;4.60;;;;;;;6.58;74.56;103514.06;7394548;19;20015;-63
2024/01/27 10:09:53;;;;;;;17.25;4.20;;;;;;;6.52;74.93;103502.72;7394360;19;20015;-63
2024/01/27 10:12:26;;;;;;;15.70;4.15;;;;;;;6.57;74.87;103506.19;7393740;19;20022;-59
2024/01/27 10:15:00;;;;;;;17.23;4.40;;;;;;;6.67;74.71;103512.19;7391854;19;20021;-60
2024/01/27 10:17:40;;;;;;;18.50;4.70;;;;;;;6.71;74.66;103508.63;7394134;19;20531;-60
2024/01/27 10:20:13;;;;;;;14.80;4.68;;;;;;;6.68;74.74;103512.19;7394120;19;20018;-60
2024/01/27 10:22:47;;;;;;;16.70;4.60;;;;;;;6.79;74.45;103510.28;7393519;19;20040;-60
2024/01/27 10:25:17;;;;;;;17.25;4.45;;;;;;;6.90;74.35;103510.13;7391681;19;20377;-61
2024/01/27 10:27:47;;;;;;;18.10;4.82;;;;;;;6.99;73.94;103517.06;7393569;19;20022;-60
2024/01/27 10:30:18;;;;;;;18.20;5.28;;;;;;;6.96;74.14;103514.47;7393555;19;20519;-61
2024/01/27 10:32:57;;;;;;;14.77;4.80;;;;;;;6.92;74.50;103518.03;7392860;19;20055;-61
2024/01/27 10:35:32;;;;;;;17.23;5.05;;;;;;;6.88;74.36;103508.44;7390700;19;20029;-62
2024/01/27 10:38:03;;;;;;;18.50;4.97;;;;;;;6.88;74.40;103521.59;7393245;19;20030;-60
2024/01/27 10:40:38;;;;;;;19.75;5.43;;;;;;;6.86;74.88;103518.97;7393476;19;20065;-57
2024/01/27 10:43:09;;;;;;;15.68;5.28;;;;;;;6.88;74.76;103525.09;7393602;19;20393;-58
2024/01/27 10:45:41;;;;;;;15.93;5.07;;;;;;;6.81;74.70;103518.16;7391579;19;20434;-58
2024/01/27 10:48:12;;;;;;;18.70;5.43;;;;;;;6.78;75.08;103513.81;7392022;19;20389;-61
2024/01/27 10:50:43;;;;;;;15.38;5.13;;;;;;;6.97;74.51;103519.69;7391829;19;20015;-61
2024/01/27 10:53:23;;;;;;;14.40;5.00;;;;;;;6.99;74.09;103522.31;7392425;19;20018;-61
2024/01/27 10:55:58;;;;;;;19.05;6.03;;;;;;;6.93;74.67;103518.00;7392569;19;20022;-61
2024/01/27 10:58:40;;;;;;;17.90;6.75;;;;;;;6.96;74.55;103523.22;7391670;19;20003;-61
2024/01/27 11:01:13;;;;;;;21.08;7.82;;;;;;;7.00;74.83;103524.06;7392571;19;20388;-61
2024/01/27 11:03:44;;;;;;;20.27;7.00;;;;;;;7.08;74.63;103523.03;7391950;19;20021;-62
2024/01/27 11:06:17;;;;;;;21.20;5.82;;;;;;;7.14;74.26;103524.75;7391924;19;20368;-62
2024/01/27 11:08:51;;;;;;;21.00;5.97;;;;;;;7.12;74.34;103515.09;7390810;19;20118;-61
2024/01/27 11:11:22;;;;;;;23.25;7.22;;;;;;;7.22;74.27;103519.34;7392569;19;20015;-61
2024/01/27 11:13:53;;;;;;;22.10;7.30;;;;;;;7.35;74.04;103520.03;7390645;19;20057;-61
2024/01/27 11:16:23;;;;;;;17.08;5.55;;;;;;;7.28;74.14;103506.94;7392147;19;20035;-62
2024/01/27 11:18:54;;;;;;;22.48;6.20;;;;;;;7.42;73.91;103508.50;7391879;19;20381;-63
2024/01/27 11:21:25;;;;;;;20.48;5.80;;;;;;;7.48;73.86;103501.38;7392067;19;20345;-63
2024/01/27 11:23:55;;;;;;;19.05;5.32;;;;;;;7.39;73.73;103477.75;7391021;19;20063;-64
2024/01/27 11:26:26;;;;;;;16.75;5.32;;;;;;;7.51;73.81;103513.59;7390470;19;20018;-63
2024/01/27 11:29:07;;;;;;;20.08;5.60;;;;;;;7.62;73.22;103513.44;7392039;19;20022;-63
2024/01/27 11:31:40;;;;;;;20.10;5.63;;;;;;;7.68;72.98;103524.75;7391529;19;20427;-60
2024/01/27 11:34:12;;;;;;;17.40;4.72;;;;;;;7.71;72.64;103530.00;7390061;19;20341;-61
2024/01/27 11:36:44;;;;;;;17.88;5.07;;;;;;;7.77;72.80;103536.91;7391528;19;20018;-60
2024/01/27 11:39:25;;;;;;;18.10;4.85;;;;;;;7.88;72.08;103547.28;7391972;19;20045;-61
2024/01/27 11:42:06;;;;;;;17.02;5.05;;;;;;;7.93;72.06;103546.28;7391394;19;20011;-62
2024/01/27 11:44:40;;;;;;;19.50;4.60;;;;;;;7.93;72.02;103545.44;7389624;19;20022;-61